Home   Weather   Poland   Poznan   Past weeks
Flag for Poland

Past Weather in Poznan, Poland — Yesterday and Last 2 Weeks

Currently: 25 °F. Sunny. (Weather station: Poznan Airport, Poland). See more current weather

Past Weather in Poznan — Graph

°F

Poznan Temperature Yesterday

Maximum temperature yesterday: 39 °F (at 11:30 am)
Minimum temperature yesterday: 21 °F (at 7:00 am)
Average temperature yesterday: 31 °F

High & Low Weather Summary for the Past Weeks

 TemperatureHumidityPressure
High64 °F (Feb 24, 1:30 pm)100% (Feb 22, 7:00 am)30.60 "Hg (Feb 22, 7:00 am)
Low18 °F (Mar 9, 6:30 am)36% (Mar 8, 1:00 pm)29.98 "Hg (Mar 4, 6:00 am)
Average39 °F78%30.33 "Hg
* Reported Feb 22 7:00 am — Mar 9 7:00 am, Poznan. Weather by CustomWeather, © 2021

Note: Actual official high and low records may vary slightly from our data, if they occured in-between our weather recording intervals... More about our weather records

Poznan Weather History for the Previous 24 Hours

Scroll right to see more
 ConditionsComfort  
Time TempWeatherWind HumidityBarometerVisibility
7:00 am
Tue, Mar 9
21 °FSunny.3 mph93%30.15 "Hg10 mi
6:30 am18 °FSunny.3 mph93%30.15 "Hg10 mi
6:00 am19 °FClear.3 mph100%30.15 "Hg6 mi
5:30 am19 °FClear.2 mph93%30.15 "Hg4 mi
5:00 am19 °FIce fog.2 mph93%30.15 "Hg2 mi
4:30 am19 °FClear.1 mph93%30.15 "Hg4 mi
4:00 am19 °FClear.2 mph93%30.15 "Hg4 mi
3:30 am19 °FClear.2 mph100%30.18 "Hg4 mi
3:00 am19 °FClear.2 mph93%30.18 "Hg6 mi
2:30 am19 °FClear.2 mph93%30.18 "Hg5 mi
2:00 am19 °FClear.2 mph86%30.18 "Hg5 mi
1:30 am19 °FClear.1 mph93%30.18 "Hg10 mi
1:00 am19 °FClear.1 mph93%30.18 "Hg10 mi
12:30 am19 °FClear.2 mph93%30.18 "Hg10 mi
12:00 am21 °FIce fog.2 mph93%30.18 "Hg3 mi
11:30 pm
Mon, Mar 8
21 °FClear.2 mph93%30.18 "Hg4 mi
11:00 pm21 °FIce fog.2 mph86%30.18 "Hg3 mi
10:30 pm21 °FIce fog.3 mph93%30.18 "Hg2 mi
10:00 pm25 °FClear.3 mph80%30.18 "Hg4 mi
9:30 pm25 °FIce fog.2 mph80%30.18 "Hg2 mi
9:00 pm25 °FClear.2 mph74%30.18 "Hg6 mi
8:30 pm27 °FClear.2 mph69%30.18 "Hg10 mi
8:00 pm30 °FClear.3 mph59%30.18 "Hg10 mi
7:30 pm32 °FClear.3 mph55%30.18 "Hg10 mi
7:00 pm32 °FClear.3 mph55%30.18 "Hg10 mi
6:30 pm34 °FClear.5 mph51%30.18 "Hg10 mi
6:00 pm34 °FClear.5 mph56%30.15 "Hg10 mi
5:30 pm36 °FSunny.3 mph48%30.15 "Hg10 mi
5:00 pm37 °FPassing clouds.6 mph45%30.15 "HgN/A
4:30 pm37 °FSunny.3 mph45%30.15 "Hg10 mi
4:00 pm37 °FPassing clouds.5 mph45%30.15 "HgN/A
3:30 pm37 °FSunny.7 mph41%30.15 "Hg10 mi
3:00 pm39 °FPassing clouds.9 mph42%30.15 "HgN/A
2:30 pm39 °FPassing clouds.6 mph39%30.15 "HgN/A
1:30 pm37 °FSunny.10 mph41%30.15 "Hg10 mi
1:00 pm39 °FPassing clouds.9 mph36%30.15 "HgN/A
12:30 pm39 °FPartly sunny.9 mph39%30.15 "HgN/A
12:00 pm37 °FPartly sunny.9 mph48%30.15 "HgN/A
11:30 am39 °FScattered clouds.12 mph52%30.15 "HgN/A
11:00 am37 °FPassing clouds.10 mph60%30.15 "HgN/A
10:30 am37 °FPassing clouds.9 mph52%30.15 "HgN/A
10:00 am36 °FSunny.8 mph60%30.12 "Hg10 mi
9:30 am32 °FSunny.6 mph69%30.12 "Hg10 mi
9:00 am32 °FSunny.6 mph69%30.12 "Hg10 mi
8:30 am30 °FSunny.5 mph80%30.12 "Hg10 mi
Weather by CustomWeather, © 2021

See weather overview